createdAt,value
2023-06-25T00:00:53.113Z,17.50
2023-06-25T00:02:55.911Z,17.50
2023-06-25T00:05:01.315Z,17.40
2023-06-25T00:07:04.716Z,17.50
2023-06-25T00:09:07.491Z,17.40
2023-06-25T00:11:10.288Z,17.40
2023-06-25T00:13:12.999Z,17.40
2023-06-25T00:15:15.656Z,17.40
2023-06-25T00:17:22.031Z,17.40
2023-06-25T00:19:27.491Z,17.30
2023-06-25T00:21:30.532Z,17.40
2023-06-25T00:23:33.395Z,17.40
2023-06-25T00:25:36.382Z,17.30
2023-06-25T00:27:39.194Z,17.30
2023-06-25T00:29:41.977Z,17.30
2023-06-25T00:31:44.805Z,17.30
2023-06-25T00:33:49.937Z,18.00
2023-06-25T00:36:05.519Z,17.30
2023-06-25T00:38:08.238Z,17.20
2023-06-25T00:40:11.488Z,17.20
2023-06-25T00:42:14.686Z,17.20
2023-06-25T00:44:17.567Z,17.10
2023-06-25T00:46:22.754Z,17.10
2023-06-25T00:48:25.750Z,17.10
2023-06-25T00:50:28.734Z,17.00
2023-06-25T00:52:31.444Z,17.00
2023-06-25T00:54:38.672Z,16.90
2023-06-25T00:56:41.505Z,16.80
2023-06-25T00:58:44.256Z,16.80
2023-06-25T01:00:48.706Z,16.80
2023-06-25T01:02:53.357Z,16.80
2023-06-25T01:05:01.086Z,16.80
2023-06-25T01:07:05.448Z,16.80
2023-06-25T01:09:10.999Z,15.10
2023-06-25T01:11:13.815Z,16.80
2023-06-25T01:13:16.575Z,16.90
2023-06-25T01:15:19.505Z,16.90
2023-06-25T01:17:22.372Z,16.90
2023-06-25T01:19:27.802Z,14.90
2023-06-25T01:21:31.597Z,16.90
2023-06-25T01:23:34.745Z,16.80
2023-06-25T01:25:39.063Z,16.90
2023-06-25T01:27:42.535Z,16.90
2023-06-25T01:29:49.203Z,16.90
2023-06-25T01:31:52.275Z,16.80
2023-06-25T01:33:55.066Z,16.70
2023-06-25T01:35:58.055Z,16.70
2023-06-25T01:38:02.140Z,16.70
2023-06-25T01:40:08.281Z,16.60
2023-06-25T01:42:11.128Z,16.60
2023-06-25T01:44:15.508Z,16.50
2023-06-25T01:46:18.310Z,15.40
2023-06-25T01:48:21.223Z,16.40
2023-06-25T01:50:23.972Z,16.40
2023-06-25T01:52:26.783Z,16.40
2023-06-25T01:54:31.532Z,16.40
2023-06-25T01:56:34.371Z,16.30
2023-06-25T01:58:37.076Z,16.30
2023-06-25T02:00:41.414Z,16.30
2023-06-25T02:02:44.705Z,16.40
2023-06-25T02:04:47.871Z,16.40
2023-06-25T02:06:50.730Z,16.40
2023-06-25T02:08:53.860Z,16.40
2023-06-25T02:10:56.700Z,16.50
2023-06-25T02:12:59.479Z,16.40
2023-06-25T02:15:02.925Z,16.50
2023-06-25T02:17:06.791Z,16.40
2023-06-25T02:19:09.456Z,16.50
2023-06-25T02:21:12.297Z,16.50
2023-06-25T02:23:15.056Z,16.40
2023-06-25T02:25:17.691Z,16.40
2023-06-25T02:27:20.720Z,16.40
2023-06-25T02:29:23.864Z,16.40
2023-06-25T02:31:26.772Z,16.50
2023-06-25T02:33:29.547Z,16.40
2023-06-25T02:35:32.564Z,16.50
2023-06-25T02:37:35.405Z,16.40
2023-06-25T02:39:38.170Z,16.40
2023-06-25T02:41:41.309Z,16.30
2023-06-25T02:43:44.145Z,16.30
2023-06-25T02:45:46.877Z,16.30
2023-06-25T02:47:50.919Z,16.20
2023-06-25T02:49:53.780Z,16.20
2023-06-25T02:51:56.808Z,16.20
2023-06-25T02:53:59.906Z,16.20
2023-06-25T02:56:03.010Z,16.10
2023-06-25T02:58:05.955Z,16.10
2023-06-25T03:00:09.729Z,16.20
2023-06-25T03:02:14.117Z,16.20
2023-06-25T03:04:17.116Z,16.10
2023-06-25T03:06:20.169Z,16.10
2023-06-25T03:08:22.903Z,16.10
2023-06-25T03:10:27.551Z,16.10
2023-06-25T03:12:30.738Z,16.10
2023-06-25T03:14:35.615Z,16.10
2023-06-25T03:16:38.374Z,16.10
2023-06-25T03:18:41.150Z,16.00
2023-06-25T03:20:43.825Z,16.00
2023-06-25T03:22:46.598Z,16.10
2023-06-25T03:24:49.336Z,16.00
2023-06-25T03:26:52.259Z,16.00
2023-06-25T03:28:56.864Z,15.90
2023-06-25T03:30:59.666Z,15.90
2023-06-25T03:33:03.791Z,15.90
2023-06-25T03:35:07.033Z,15.90
2023-06-25T03:37:10.241Z,15.90
2023-06-25T03:39:12.970Z,15.90
2023-06-25T03:41:15.705Z,15.90
2023-06-25T03:43:18.505Z,15.90
2023-06-25T03:45:21.551Z,15.90
2023-06-25T03:47:24.662Z,15.90
2023-06-25T03:49:27.480Z,16.00
2023-06-25T03:51:30.214Z,16.00
2023-06-25T03:53:33.085Z,16.00
2023-06-25T03:55:35.986Z,15.90
2023-06-25T03:57:38.947Z,15.90
2023-06-25T03:59:41.718Z,15.90
2023-06-25T04:01:44.718Z,15.90
2023-06-25T04:03:47.495Z,15.90
2023-06-25T04:05:50.314Z,15.90
2023-06-25T04:07:53.181Z,15.80
2023-06-25T04:09:56.201Z,15.80
2023-06-25T04:12:00.471Z,15.80
2023-06-25T04:14:03.385Z,15.80
2023-06-25T04:16:07.765Z,15.80
2023-06-25T04:18:12.009Z,15.90
2023-06-25T04:20:14.900Z,15.90
2023-06-25T04:22:17.584Z,15.90
2023-06-25T04:24:20.847Z,16.00
2023-06-25T04:26:23.977Z,16.00
2023-06-25T04:28:26.863Z,16.10
2023-06-25T04:30:29.874Z,16.00
2023-06-25T04:32:33.582Z,16.10
2023-06-25T04:34:36.429Z,16.10
2023-06-25T04:36:39.367Z,16.10
2023-06-25T04:38:42.421Z,16.10
2023-06-25T04:40:45.102Z,16.10
2023-06-25T04:42:47.941Z,16.20
2023-06-25T04:44:53.017Z,16.20
2023-06-25T04:46:56.805Z,16.20
2023-06-25T04:49:00.115Z,16.20
2023-06-25T04:51:03.946Z,16.30
2023-06-25T04:53:06.716Z,16.40
2023-06-25T04:55:09.734Z,16.40
2023-06-25T04:57:12.835Z,16.80
2023-06-25T04:59:15.646Z,16.50
2023-06-25T05:01:18.514Z,16.60
2023-06-25T05:03:21.200Z,16.60
2023-06-25T05:05:23.990Z,16.60
2023-06-25T05:07:26.612Z,16.60
2023-06-25T05:09:29.464Z,16.50
2023-06-25T05:11:32.272Z,16.60
2023-06-25T05:13:35.989Z,16.60
2023-06-25T05:15:40.745Z,16.60
2023-06-25T05:17:43.405Z,16.70
2023-06-25T05:19:46.422Z,16.80
2023-06-25T05:21:49.288Z,16.80
2023-06-25T05:23:59.884Z,16.90
2023-06-25T05:26:05.175Z,16.90
2023-06-25T05:28:07.782Z,17.00
2023-06-25T05:30:10.800Z,17.10
2023-06-25T05:32:13.485Z,17.10
2023-06-25T05:34:16.139Z,17.20
2023-06-25T05:36:19.020Z,17.30
2023-06-25T05:38:21.787Z,17.50
2023-06-25T05:40:24.449Z,17.60
2023-06-25T05:42:27.197Z,18.00
2023-06-25T05:44:29.977Z,17.80
2023-06-25T05:46:35.912Z,17.90
2023-06-25T05:48:38.877Z,18.00
2023-06-25T05:50:41.483Z,18.10
2023-06-25T05:52:44.391Z,18.20
2023-06-25T05:54:47.114Z,18.30
2023-06-25T05:56:49.817Z,18.50
2023-06-25T05:58:52.523Z,18.60
2023-06-25T06:00:55.236Z,18.90
2023-06-25T06:02:57.844Z,18.70
2023-06-25T06:05:00.496Z,18.80
2023-06-25T06:07:03.690Z,19.10
2023-06-25T06:09:06.493Z,19.00
2023-06-25T06:11:11.090Z,19.10
2023-06-25T06:13:13.708Z,19.10
2023-06-25T06:15:17.245Z,19.30
2023-06-25T06:17:20.065Z,19.20
2023-06-25T06:19:22.750Z,19.20
2023-06-25T06:21:25.594Z,19.20
2023-06-25T06:23:28.320Z,19.30
2023-06-25T06:25:31.086Z,19.40
2023-06-25T06:27:33.861Z,19.40
2023-06-25T06:29:36.620Z,19.50
2023-06-25T06:31:41.195Z,19.50
2023-06-25T06:33:44.024Z,19.60
2023-06-25T06:35:46.959Z,19.70
2023-06-25T06:37:49.724Z,19.80
2023-06-25T06:39:52.471Z,19.80
2023-06-25T06:41:58.374Z,20.50
2023-06-25T06:44:11.402Z,20.00
2023-06-25T06:46:14.053Z,20.00
2023-06-25T06:48:16.838Z,20.10
2023-06-25T06:50:19.546Z,20.20
2023-06-25T06:52:24.467Z,20.40
2023-06-25T06:54:27.275Z,20.50
2023-06-25T06:56:30.054Z,20.70
2023-06-25T06:58:32.773Z,21.10
2023-06-25T07:00:35.438Z,21.30
2023-06-25T07:02:38.337Z,21.40
2023-06-25T07:04:41.017Z,21.50
2023-06-25T07:06:43.717Z,21.70
2023-06-25T07:08:49.635Z,21.90
2023-06-25T07:10:52.734Z,22.10
2023-06-25T07:12:55.457Z,22.30
2023-06-25T07:14:58.073Z,22.40
2023-06-25T07:17:00.924Z,22.50
2023-06-25T07:19:03.919Z,22.70
2023-06-25T07:21:06.942Z,22.90
2023-06-25T07:23:09.654Z,23.00
2023-06-25T07:25:12.303Z,23.20
2023-06-25T07:27:16.425Z,23.30
2023-06-25T07:29:19.300Z,23.30
2023-06-25T07:33:24.851Z,23.40
2023-06-25T07:35:27.643Z,23.60
2023-06-25T07:37:30.446Z,23.70
2023-06-25T07:39:33.930Z,23.80
2023-06-25T07:41:36.480Z,23.90
2023-06-25T07:43:39.291Z,24.10
2023-06-25T07:45:42.606Z,24.20
2023-06-25T07:47:45.497Z,24.40
2023-06-25T07:49:48.309Z,24.50
2023-06-25T07:51:51.881Z,24.60
2023-06-25T07:53:54.437Z,24.70
2023-06-25T07:56:02.951Z,24.90
2023-06-25T07:58:01.973Z,25.00
2023-06-25T08:00:06.168Z,25.10
2023-06-25T08:02:10.945Z,25.20
2023-06-25T08:04:13.930Z,25.40
2023-06-25T08:06:17.036Z,25.50
2023-06-25T08:08:19.911Z,25.80
2023-06-25T08:10:22.762Z,25.80
2023-06-25T08:12:26.619Z,26.00
2023-06-25T08:14:29.259Z,26.20
2023-06-25T08:16:31.917Z,26.40
2023-06-25T08:18:34.700Z,26.50
2023-06-25T08:20:37.827Z,26.60
2023-06-25T08:22:42.542Z,26.90
2023-06-25T08:24:45.568Z,26.90
2023-06-25T08:26:48.361Z,27.00
2023-06-25T08:28:51.590Z,27.20
2023-06-25T08:30:56.498Z,27.30
2023-06-25T08:32:59.350Z,28.10
2023-06-25T08:35:05.762Z,27.50
2023-06-25T08:37:08.947Z,27.40
2023-06-25T08:39:11.662Z,27.50
2023-06-25T08:41:15.735Z,27.60
2023-06-25T08:43:22.276Z,27.70
2023-06-25T08:45:26.611Z,27.60
2023-06-25T08:47:30.259Z,27.70
2023-06-25T08:52:26.048Z,27.90
2023-06-25T08:54:28.937Z,27.90
2023-06-25T08:56:32.267Z,28.30
2023-06-25T09:10:01.493Z,27.70
2023-06-25T09:12:08.374Z,27.40
2023-06-25T09:25:12.722Z,28.70
2023-06-25T09:27:36.058Z,28.10
2023-06-25T09:29:32.716Z,29.30
2023-06-25T09:31:49.110Z,29.60
2023-06-25T09:34:22.727Z,29.50
2023-06-25T10:12:56.930Z,31.40
2023-06-25T10:15:02.794Z,29.80
2023-06-25T10:17:06.455Z,29.60
2023-06-25T10:19:09.473Z,29.70
2023-06-25T10:21:19.150Z,29.70
2023-06-25T10:23:27.144Z,27.90
2023-06-25T10:25:30.973Z,28.30
2023-06-25T10:27:33.757Z,27.40
2023-06-25T10:29:49.318Z,30.40
2023-06-25T10:31:54.587Z,30.90
2023-06-25T10:34:04.327Z,30.00
2023-06-25T10:36:09.551Z,29.30
2023-06-25T10:38:14.218Z,30.10
2023-06-25T10:40:17.194Z,30.20
2023-06-25T10:42:28.252Z,32.40
2023-06-25T10:44:37.786Z,30.50
2023-06-25T10:46:42.938Z,29.90
2023-06-25T10:48:46.923Z,29.70
2023-06-25T10:50:49.981Z,26.90
2023-06-25T10:52:58.760Z,26.70
2023-06-25T10:55:04.969Z,28.20
2023-06-25T10:57:08.732Z,29.20
2023-06-25T10:59:18.106Z,25.80
2023-06-25T11:01:25.758Z,29.70
2023-06-25T11:03:30.757Z,29.00
2023-06-25T11:05:34.781Z,29.00
2023-06-25T11:07:37.878Z,27.70
2023-06-25T11:09:41.228Z,29.00
2023-06-25T11:11:44.048Z,29.10
2023-06-25T11:13:49.682Z,29.20
2023-06-25T11:15:54.209Z,27.90
2023-06-25T11:17:58.831Z,29.50
2023-06-25T11:20:08.380Z,29.60
2023-06-25T11:22:11.307Z,29.20
2023-06-25T11:24:28.820Z,29.90
2023-06-25T11:26:49.339Z,29.70
2023-06-25T11:28:54.764Z,31.50
2023-06-25T11:31:03.293Z,28.10
2023-06-25T11:33:15.071Z,33.00
2023-06-25T11:35:25.335Z,29.50
2023-06-25T11:37:35.950Z,28.70
2023-06-25T11:39:45.637Z,29.10
2023-06-25T11:41:48.780Z,28.80
2023-06-25T11:43:51.733Z,30.70
2023-06-25T11:45:58.849Z,28.40
2023-06-25T11:48:02.485Z,29.00
2023-06-25T11:50:05.619Z,28.80
2023-06-25T11:52:08.329Z,27.90
2023-06-25T11:54:11.058Z,28.00
2023-06-25T11:56:14.869Z,28.00
2023-06-25T11:58:17.529Z,28.20
2023-06-25T12:00:20.433Z,28.40
2023-06-25T12:02:26.470Z,28.50
2023-06-25T12:04:27.853Z,28.50
2023-06-25T12:06:30.756Z,28.50
2023-06-25T12:08:33.482Z,28.50
2023-06-25T12:10:36.237Z,28.60
2023-06-25T12:12:39.177Z,28.80
2023-06-25T12:44:08.566Z,29.20
2023-06-25T12:46:21.008Z,28.50
2023-06-25T12:48:36.764Z,29.40
2023-06-25T12:50:44.354Z,29.00
2023-06-25T12:52:50.660Z,29.80
2023-06-25T12:54:55.735Z,29.50
2023-06-25T12:57:02.656Z,29.60
2023-06-25T12:59:13.463Z,29.40
2023-06-25T13:01:18.527Z,27.30
2023-06-25T13:03:37.058Z,30.20
2023-06-25T13:06:16.561Z,30.20
2023-06-25T13:08:25.094Z,29.00
2023-06-25T13:10:55.867Z,28.60
2023-06-25T13:13:02.050Z,29.00
2023-06-25T13:15:11.118Z,29.50
2023-06-25T13:17:20.636Z,25.60
2023-06-25T13:19:29.208Z,26.90
2023-06-25T13:21:35.723Z,29.00
2023-06-25T13:23:39.268Z,26.40
2023-06-25T13:25:42.517Z,26.90
2023-06-25T13:27:58.061Z,29.00
2023-06-25T13:30:08.505Z,29.60
2023-06-25T13:32:11.443Z,29.10
2023-06-25T13:34:16.293Z,30.00
2023-06-25T13:36:22.058Z,29.90
2023-06-25T13:38:26.917Z,28.20
2023-06-25T13:40:35.003Z,27.60
2023-06-25T13:42:37.885Z,33.50
2023-06-25T13:44:40.781Z,31.20
2023-06-25T13:46:44.072Z,30.80
2023-06-25T13:48:54.756Z,27.70
2023-06-25T14:07:16.553Z,30.80
2023-06-25T14:09:20.231Z,30.20
2023-06-25T14:11:23.198Z,29.70
2023-06-25T14:13:42.533Z,30.60
2023-06-25T14:49:59.436Z,30.20
2023-06-25T14:52:02.474Z,30.50
2023-06-25T14:54:06.688Z,29.20
2023-06-25T14:56:09.848Z,29.80
2023-06-25T14:58:12.866Z,28.80
2023-06-25T15:00:16.649Z,29.60
2023-06-25T15:02:19.875Z,29.60
2023-06-25T15:04:24.000Z,29.00
2023-06-25T15:06:34.964Z,29.60
2023-06-25T15:12:50.348Z,29.70
2023-06-25T15:14:53.647Z,30.40
2023-06-25T15:16:56.440Z,30.50
2023-06-25T15:18:59.303Z,28.80
2023-06-25T15:21:02.102Z,30.50
2023-06-25T15:23:04.940Z,29.90
2023-06-25T15:25:08.257Z,28.90
2023-06-25T15:27:11.268Z,30.60
2023-06-25T15:29:14.310Z,30.70
2023-06-25T15:31:17.377Z,28.50
2023-06-25T15:33:21.036Z,30.40
2023-06-25T15:35:26.690Z,30.80
2023-06-25T15:37:29.464Z,30.80
2023-06-25T15:39:32.387Z,29.80
2023-06-25T15:41:36.349Z,31.60
2023-06-25T15:43:40.111Z,27.60
2023-06-25T15:45:43.202Z,30.60
2023-06-25T15:47:46.223Z,30.60
2023-06-25T15:49:49.699Z,29.60
2023-06-25T15:51:54.074Z,30.60
2023-06-25T15:53:56.910Z,27.80
2023-06-25T15:56:00.863Z,29.90
2023-06-25T15:58:04.051Z,30.00
2023-06-25T16:00:08.899Z,30.30
2023-06-25T16:02:13.781Z,28.30
2023-06-25T16:04:16.660Z,30.40
2023-06-25T16:06:19.698Z,30.20
2023-06-25T16:08:22.551Z,30.30
2023-06-25T16:10:25.449Z,30.00
2023-06-25T16:12:28.293Z,28.40
2023-06-25T16:14:31.224Z,29.90
2023-06-25T16:16:36.273Z,29.50
2023-06-25T16:18:40.749Z,31.20
2023-06-25T16:20:43.404Z,30.10
2023-06-25T16:22:46.201Z,30.10
2023-06-25T16:24:54.142Z,27.90
2023-06-25T16:26:58.393Z,29.10
2023-06-25T16:29:02.870Z,27.30
2023-06-25T16:31:06.129Z,30.10
2023-06-25T16:33:09.112Z,29.80
2023-06-25T16:35:12.125Z,30.30
2023-06-25T16:37:16.298Z,30.50
2023-06-25T16:39:19.420Z,30.10
2023-06-25T16:41:23.007Z,30.40
2023-06-25T16:43:25.805Z,30.40
2023-06-25T16:45:28.452Z,28.10
2023-06-25T16:47:31.352Z,30.40
2023-06-25T16:49:37.295Z,30.40
2023-06-25T16:51:42.789Z,30.20
2023-06-25T16:53:45.677Z,30.10
2023-06-25T16:55:48.504Z,28.30
2023-06-25T16:57:51.354Z,30.00
2023-06-25T16:59:54.078Z,30.10
2023-06-25T17:01:58.819Z,29.20
2023-06-25T17:04:01.743Z,29.00
2023-06-25T17:06:08.164Z,30.10
2023-06-25T17:08:11.386Z,30.10
2023-06-25T17:10:14.266Z,30.10
2023-06-25T17:12:19.179Z,30.10
2023-06-25T17:14:23.974Z,29.90
2023-06-25T17:16:27.738Z,30.20
2023-06-25T17:18:30.523Z,30.10
2023-06-25T17:20:33.350Z,30.10
2023-06-25T17:22:38.493Z,29.90
2023-06-25T17:24:41.162Z,30.10
2023-06-25T17:26:46.746Z,30.40
2023-06-25T17:28:49.612Z,30.10
2023-06-25T17:30:52.703Z,29.70
2023-06-25T17:32:55.606Z,30.10
2023-06-25T17:34:58.309Z,30.10
2023-06-25T17:37:01.235Z,29.80
2023-06-25T17:39:04.119Z,29.80
2023-06-25T17:41:09.578Z,29.60
2023-06-25T17:43:13.156Z,28.30
2023-06-25T17:45:16.166Z,28.60
2023-06-25T17:47:18.959Z,29.40
2023-06-25T17:49:21.743Z,29.40
2023-06-25T17:51:25.925Z,27.30
2023-06-25T17:53:30.706Z,29.20
2023-06-25T17:55:34.019Z,29.20
2023-06-25T17:57:36.947Z,29.20
2023-06-25T17:59:42.371Z,27.00
2023-06-25T18:01:47.558Z,29.10
2023-06-25T18:03:50.118Z,29.10
2023-06-25T18:05:52.872Z,29.10
2023-06-25T18:07:55.882Z,29.00
2023-06-25T18:09:59.156Z,28.20
2023-06-25T18:12:02.079Z,28.90
2023-06-25T18:14:04.956Z,28.80
2023-06-25T18:16:08.051Z,29.00
2023-06-25T18:18:12.712Z,28.60
2023-06-25T18:20:16.449Z,26.50
2023-06-25T18:22:21.333Z,28.60
2023-06-25T18:24:24.109Z,29.00
2023-06-25T18:26:27.138Z,30.90
2023-06-25T18:28:30.138Z,27.60
2023-06-25T18:33:31.553Z,29.10
2023-06-25T18:35:36.089Z,26.60
2023-06-25T18:37:39.135Z,28.30
2023-06-25T18:39:41.868Z,27.70
2023-06-25T18:41:44.707Z,27.70
2023-06-25T18:43:49.106Z,28.10
2023-06-25T18:45:51.839Z,28.00
2023-06-25T18:47:54.538Z,26.80
2023-06-25T18:49:57.389Z,27.30
2023-06-25T18:52:01.906Z,27.80
2023-06-25T18:54:04.684Z,27.80
2023-06-25T18:56:07.533Z,27.80
2023-06-25T18:58:12.806Z,27.70
2023-06-25T19:00:16.253Z,27.60
2023-06-25T19:02:19.757Z,27.80
2023-06-25T19:04:25.857Z,27.50
2023-06-25T19:06:29.925Z,27.40
2023-06-25T19:08:32.720Z,27.40
2023-06-25T19:10:35.773Z,27.30
2023-06-25T19:12:39.293Z,27.30
2023-06-25T19:14:42.875Z,27.10
2023-06-25T19:16:47.185Z,27.20
2023-06-25T19:18:51.752Z,27.10
2023-06-25T19:20:54.410Z,27.00
2023-06-25T19:23:23.856Z,27.00
2023-06-25T19:25:03.408Z,26.90
2023-06-25T19:27:07.028Z,26.80
2023-06-25T19:29:09.817Z,26.70
2023-06-25T19:31:12.779Z,26.70
2023-06-25T19:33:15.584Z,26.60
2023-06-25T19:35:21.160Z,26.50
2023-06-25T19:37:23.231Z,26.50
2023-06-25T19:39:28.819Z,26.50
2023-06-25T19:41:33.901Z,26.30
2023-06-25T19:43:37.348Z,26.20
2023-06-25T19:45:41.273Z,26.30
2023-06-25T19:47:44.287Z,26.20
2023-06-25T19:49:47.074Z,26.10
2023-06-25T19:51:49.826Z,26.10
2023-06-25T19:53:52.867Z,26.00
2023-06-25T19:55:55.801Z,24.40
2023-06-25T19:57:58.758Z,26.70
2023-06-25T20:00:01.803Z,26.20
2023-06-25T20:02:05.352Z,25.80
2023-06-25T20:04:08.222Z,26.20
2023-06-25T20:06:11.133Z,25.80
2023-06-25T20:08:15.564Z,25.70
2023-06-25T20:10:21.542Z,25.70
2023-06-25T20:12:26.177Z,25.60
2023-06-25T20:14:31.066Z,25.60
2023-06-25T20:16:33.954Z,25.60
2023-06-25T20:18:36.587Z,25.50
2023-06-25T20:20:41.507Z,25.50
2023-06-25T20:22:44.163Z,25.60
2023-06-25T20:24:46.919Z,25.50
2023-06-25T20:26:49.782Z,25.50
2023-06-25T20:28:52.574Z,25.40
2023-06-25T20:30:55.355Z,25.30
2023-06-25T20:32:59.804Z,25.20
2023-06-25T20:35:02.880Z,26.00
2023-06-25T20:37:05.705Z,25.10
2023-06-25T20:39:08.565Z,25.10
2023-06-25T20:41:31.095Z,25.10
2023-06-25T20:43:16.189Z,25.60
2023-06-25T20:45:18.837Z,24.80
2023-06-25T20:47:21.621Z,24.70
2023-06-25T20:49:27.301Z,24.60
2023-06-25T20:51:30.610Z,24.70
2023-06-25T20:53:33.326Z,24.60
2023-06-25T20:55:35.985Z,24.60
2023-06-25T20:57:38.701Z,24.60
2023-06-25T20:59:41.406Z,24.50
2023-06-25T21:01:44.267Z,24.40
2023-06-25T21:03:46.920Z,24.30
2023-06-25T21:05:49.686Z,24.20
2023-06-25T21:07:52.324Z,24.20
2023-06-25T21:09:55.147Z,24.00
2023-06-25T21:11:57.887Z,24.00
2023-06-25T21:14:00.596Z,24.00
2023-06-25T21:16:03.240Z,24.00
2023-06-25T21:18:06.758Z,24.00
2023-06-25T21:20:10.470Z,23.90
2023-06-25T21:22:13.266Z,23.80
2023-06-25T21:24:16.033Z,23.70
2023-06-25T21:26:18.902Z,23.60
2023-06-25T21:28:21.657Z,23.50
2023-06-25T21:30:24.364Z,23.40
2023-06-25T21:32:26.996Z,23.30
2023-06-25T21:34:29.641Z,23.40
2023-06-25T21:36:32.349Z,23.40
2023-06-25T21:38:35.107Z,23.00
2023-06-25T21:40:38.219Z,23.00
2023-06-25T21:42:41.478Z,23.00
2023-06-25T21:44:44.271Z,22.90
2023-06-25T21:46:47.044Z,22.90
2023-06-25T21:48:49.827Z,22.80
2023-06-25T21:50:55.265Z,22.70
2023-06-25T21:52:57.903Z,22.70
2023-06-25T21:55:00.632Z,22.60
2023-06-25T21:57:03.600Z,23.50
2023-06-25T21:59:06.301Z,22.60
2023-06-25T22:01:08.907Z,22.60
2023-06-25T22:03:11.688Z,22.50
2023-06-25T22:05:14.531Z,22.50
2023-06-25T22:07:17.313Z,25.50
2023-06-25T22:09:20.058Z,22.40
2023-06-25T22:11:23.193Z,22.40
2023-06-25T22:13:26.713Z,22.40
2023-06-25T22:15:30.385Z,22.40
2023-06-25T22:17:33.087Z,22.20
2023-06-25T22:19:37.018Z,22.30
2023-06-25T22:21:39.742Z,22.20
2023-06-25T22:23:42.543Z,22.90
2023-06-25T22:25:45.351Z,22.10
2023-06-25T22:27:52.555Z,22.00
2023-06-25T22:29:52.760Z,21.90
2023-06-25T22:31:55.476Z,21.80
2023-06-25T22:33:58.324Z,21.70
2023-06-25T22:36:01.023Z,21.70
2023-06-25T22:38:03.817Z,21.70
2023-06-25T22:40:07.656Z,21.70
2023-06-25T22:42:10.309Z,21.60
2023-06-25T22:44:12.960Z,21.60
2023-06-25T22:46:15.541Z,21.50
2023-06-25T22:48:18.440Z,21.50
2023-06-25T22:50:22.930Z,21.40
2023-06-25T22:52:25.814Z,21.40
2023-06-25T22:54:28.668Z,22.20
2023-06-25T22:56:31.450Z,21.30
2023-06-25T22:58:34.403Z,21.30
2023-06-25T23:00:37.991Z,21.20
2023-06-25T23:02:41.302Z,21.20
2023-06-25T23:04:44.176Z,21.10
2023-06-25T23:06:46.778Z,21.10
2023-06-25T23:08:49.589Z,21.10
2023-06-25T23:10:52.702Z,21.10
2023-06-25T23:12:57.669Z,21.10
2023-06-25T23:15:00.903Z,21.10
2023-06-25T23:17:04.416Z,21.20
2023-06-25T23:19:08.224Z,21.40
2023-06-25T23:21:12.802Z,21.30
2023-06-25T23:23:16.748Z,21.20
2023-06-25T23:25:28.284Z,21.20
2023-06-25T23:27:24.800Z,21.20
2023-06-25T23:29:27.450Z,21.10
2023-06-25T23:31:30.608Z,21.10
2023-06-25T23:33:33.555Z,21.10
2023-06-25T23:35:36.704Z,21.10
2023-06-25T23:37:42.409Z,21.00
2023-06-25T23:39:45.095Z,20.90
2023-06-25T23:41:47.763Z,20.90
2023-06-25T23:43:50.484Z,20.80
2023-06-25T23:45:53.447Z,20.80
2023-06-25T23:47:56.201Z,20.70
2023-06-25T23:50:00.185Z,20.60
2023-06-25T23:52:02.930Z,20.50
2023-06-25T23:54:05.938Z,20.50
2023-06-25T23:56:08.596Z,20.40
2023-06-25T23:58:11.364Z,20.40
